createdAt,value
2022-08-03T00:02:19.339Z,21.96
2022-08-03T00:04:49.915Z,22.01
2022-08-03T00:07:17.932Z,22.00
2022-08-03T00:09:48.430Z,21.92
2022-08-03T00:12:17.131Z,21.90
2022-08-03T00:14:45.379Z,21.87
2022-08-03T00:17:14.262Z,21.78
2022-08-03T00:19:42.288Z,21.82
2022-08-03T00:22:11.501Z,21.82
2022-08-03T00:24:39.307Z,21.82
2022-08-03T00:27:07.129Z,21.83
2022-08-03T00:29:57.595Z,21.84
2022-08-03T00:32:24.142Z,21.85
2022-08-03T00:34:57.842Z,21.76
2022-08-03T00:37:40.654Z,21.72
2022-08-03T00:40:13.502Z,21.74
2022-08-03T00:42:50.719Z,21.76
2022-08-03T00:45:19.497Z,21.74
2022-08-03T00:47:48.239Z,21.74
2022-08-03T00:50:18.210Z,21.73
2022-08-03T00:52:47.803Z,21.74
2022-08-03T00:55:16.763Z,21.76
2022-08-03T00:57:45.318Z,21.72
2022-08-03T01:00:16.981Z,21.74
2022-08-03T01:02:47.638Z,21.72
2022-08-03T01:05:15.677Z,21.72
2022-08-03T01:08:03.243Z,21.68
2022-08-03T01:10:39.843Z,21.67
2022-08-03T01:14:01.063Z,21.62
2022-08-03T01:16:25.821Z,21.62
2022-08-03T01:19:31.447Z,21.64
2022-08-03T01:22:23.221Z,21.61
2022-08-03T01:25:06.324Z,21.56
2022-08-03T01:28:02.306Z,21.54
2022-08-03T01:30:37.368Z,21.47
2022-08-03T01:33:15.535Z,21.47
2022-08-03T01:35:48.733Z,21.44
2022-08-03T01:38:24.774Z,21.44
2022-08-03T01:40:55.665Z,21.42
2022-08-03T01:44:26.967Z,21.42
2022-08-03T01:46:23.248Z,21.34
2022-08-03T01:48:51.979Z,21.31
2022-08-03T01:51:22.240Z,21.34
2022-08-03T01:53:54.807Z,21.28
2022-08-03T01:56:27.682Z,21.28
2022-08-03T01:58:58.817Z,21.26
2022-08-03T02:02:15.399Z,21.29
2022-08-03T02:04:22.665Z,21.27
2022-08-03T02:07:00.398Z,21.29
2022-08-03T02:09:33.060Z,21.34
2022-08-03T02:12:02.127Z,21.32
2022-08-03T02:14:33.092Z,21.32
2022-08-03T02:17:04.615Z,21.33
2022-08-03T02:19:35.912Z,21.30
2022-08-03T02:22:08.426Z,21.28
2022-08-03T02:24:36.500Z,21.33
2022-08-03T02:27:14.783Z,21.34
2022-08-03T02:29:48.760Z,21.36
2022-08-03T02:32:30.772Z,21.35
2022-08-03T02:35:02.338Z,21.35
2022-08-03T02:37:38.605Z,21.37
2022-08-03T02:40:15.111Z,21.41
2022-08-03T02:42:46.566Z,21.39
2022-08-03T02:45:19.892Z,21.40
2022-08-03T02:47:54.231Z,21.39
2022-08-03T02:50:24.505Z,21.40
2022-08-03T02:52:53.271Z,21.40
2022-08-03T02:55:23.284Z,21.39
2022-08-03T02:57:53.316Z,21.39
2022-08-03T03:00:28.448Z,21.35
2022-08-03T03:03:01.581Z,21.32
2022-08-03T03:05:52.213Z,21.33
2022-08-03T03:08:26.870Z,21.27
2022-08-03T03:10:59.987Z,21.26
2022-08-03T03:13:30.192Z,21.21
2022-08-03T03:16:03.767Z,21.15
2022-08-03T03:18:35.277Z,21.07
2022-08-03T03:21:05.507Z,21.04
2022-08-03T03:23:37.297Z,21.05
2022-08-03T03:26:07.602Z,20.97
2022-08-03T03:28:39.453Z,20.71
2022-08-03T03:31:09.353Z,20.66
2022-08-03T03:33:39.434Z,20.72
2022-08-03T03:36:10.210Z,20.63
2022-08-03T03:38:39.333Z,20.68
2022-08-03T03:41:08.127Z,20.59
2022-08-03T03:43:36.355Z,20.47
2022-08-03T03:46:05.258Z,20.51
2022-08-03T03:48:33.673Z,20.56
2022-08-03T03:51:03.557Z,20.61
2022-08-03T03:53:31.578Z,20.64
2022-08-03T03:56:02.607Z,20.63
2022-08-03T03:58:32.826Z,20.59
2022-08-03T04:01:03.604Z,20.54
2022-08-03T04:03:33.229Z,20.52
2022-08-03T04:06:21.621Z,20.51
2022-08-03T04:09:08.305Z,20.51
2022-08-03T04:11:43.536Z,20.53
2022-08-03T04:14:17.498Z,20.54
2022-08-03T04:16:50.786Z,20.56
2022-08-03T04:19:28.699Z,20.49
2022-08-03T04:22:03.965Z,20.46
2022-08-03T04:24:35.212Z,20.50
2022-08-03T04:27:08.279Z,20.51
2022-08-03T04:29:46.457Z,20.53
2022-08-03T04:32:18.168Z,20.58
2022-08-03T04:34:47.385Z,20.64
2022-08-03T04:37:27.353Z,20.70
2022-08-03T04:40:00.191Z,20.73
2022-08-03T04:42:31.868Z,20.81
2022-08-03T04:45:02.022Z,20.87
2022-08-03T04:47:33.434Z,20.94
2022-08-03T04:50:03.232Z,21.04
2022-08-03T04:52:34.050Z,21.11
2022-08-03T04:55:01.938Z,21.16
2022-08-03T04:57:30.024Z,21.22
2022-08-03T05:00:02.752Z,21.28
2022-08-03T05:02:32.048Z,21.35
2022-08-03T05:05:00.537Z,21.42
2022-08-03T05:07:35.719Z,21.52
2022-08-03T05:10:15.831Z,21.65
2022-08-03T05:12:46.056Z,21.84
2022-08-03T05:15:14.637Z,22.03
2022-08-03T05:17:45.576Z,22.28
2022-08-03T05:20:18.935Z,22.50
2022-08-03T05:22:47.197Z,22.80
2022-08-03T05:25:19.780Z,23.14
2022-08-03T05:27:50.921Z,23.49
2022-08-03T05:30:29.663Z,23.71
2022-08-03T05:33:06.374Z,23.94
2022-08-03T05:36:02.097Z,24.20
2022-08-03T05:38:28.572Z,24.49
2022-08-03T05:41:21.290Z,24.65
2022-08-03T05:43:52.245Z,24.75
2022-08-03T05:46:21.057Z,24.85
2022-08-03T05:48:49.226Z,25.07
2022-08-03T05:51:17.558Z,25.19
2022-08-03T05:53:46.649Z,25.41
2022-08-03T05:56:16.817Z,25.71
2022-08-03T05:58:47.476Z,25.82
2022-08-03T06:01:19.202Z,25.93
2022-08-03T06:03:48.280Z,26.13
2022-08-03T06:06:17.211Z,26.37
2022-08-03T06:08:48.761Z,26.71
2022-08-03T06:11:18.192Z,26.97
2022-08-03T06:13:46.741Z,27.17
2022-08-03T06:16:14.996Z,27.42
2022-08-03T06:18:43.854Z,27.50
2022-08-03T06:21:15.690Z,27.69
2022-08-03T06:23:54.335Z,27.89
2022-08-03T06:26:28.648Z,28.12
2022-08-03T06:28:57.658Z,28.26
2022-08-03T06:31:33.174Z,28.27
2022-08-03T06:34:33.510Z,28.40
2022-08-03T06:36:59.968Z,28.45
2022-08-03T06:39:32.538Z,28.67
2022-08-03T06:42:04.870Z,28.91
2022-08-03T06:44:34.482Z,29.14
2022-08-03T06:47:03.835Z,29.53
2022-08-03T06:49:32.550Z,29.81
2022-08-03T06:52:04.085Z,29.84
2022-08-03T06:54:36.175Z,29.99
2022-08-03T06:57:08.352Z,30.14
2022-08-03T07:00:08.645Z,30.09
2022-08-03T07:02:25.131Z,30.35
2022-08-03T07:04:57.429Z,30.58
2022-08-03T07:07:26.179Z,30.55
2022-08-03T07:09:57.126Z,30.71
2022-08-03T07:12:29.908Z,31.03
2022-08-03T07:15:02.669Z,31.23
2022-08-03T07:17:34.074Z,31.53
2022-08-03T07:20:04.971Z,31.29
2022-08-03T07:22:33.004Z,31.23
2022-08-03T07:25:01.224Z,31.42
2022-08-03T07:27:30.655Z,31.46
2022-08-03T07:29:59.318Z,31.33
2022-08-03T07:32:31.278Z,31.47
2022-08-03T07:35:01.178Z,31.79
2022-08-03T07:37:31.475Z,32.04
2022-08-03T07:40:01.424Z,32.26
2022-08-03T07:42:31.568Z,32.53
2022-08-03T07:44:59.889Z,32.83
2022-08-03T07:47:35.096Z,33.01
2022-08-03T07:50:08.761Z,32.65
2022-08-03T07:52:49.764Z,32.47
2022-08-03T07:55:20.742Z,32.35
2022-08-03T07:58:01.199Z,32.14
2022-08-03T08:00:29.112Z,32.06
2022-08-03T08:02:56.973Z,32.30
2022-08-03T08:05:25.152Z,32.82
2022-08-03T08:07:53.092Z,32.80
2022-08-03T08:10:21.337Z,33.04
2022-08-03T08:12:50.792Z,33.21
2022-08-03T08:15:20.346Z,33.08
2022-08-03T08:17:52.959Z,33.12
2022-08-03T08:20:28.086Z,33.39
2022-08-03T08:23:01.860Z,33.66
2022-08-03T08:25:33.584Z,33.74
2022-08-03T08:28:22.540Z,33.99
2022-08-03T08:30:52.264Z,34.24
2022-08-03T08:33:23.556Z,33.96
2022-08-03T08:35:53.631Z,34.03
2022-08-03T08:38:22.499Z,34.08
2022-08-03T08:40:50.649Z,34.19
2022-08-03T08:43:20.920Z,34.25
2022-08-03T08:45:55.925Z,34.35
2022-08-03T08:48:28.135Z,34.25
2022-08-03T08:50:57.791Z,34.54
2022-08-03T08:53:29.521Z,35.03
2022-08-03T08:56:02.121Z,35.32
2022-08-03T08:58:38.766Z,35.38
2022-08-03T09:01:08.200Z,35.24
2022-08-03T09:03:37.228Z,35.43
2022-08-03T09:06:05.470Z,35.46
2022-08-03T09:08:33.555Z,35.19
2022-08-03T09:11:01.415Z,35.42
2022-08-03T09:13:35.281Z,35.82
2022-08-03T09:16:14.275Z,35.52
2022-08-03T09:18:45.853Z,35.51
2022-08-03T09:21:31.699Z,35.82
2022-08-03T09:24:05.824Z,35.53
2022-08-03T09:26:37.642Z,35.70
2022-08-03T09:29:14.601Z,35.63
2022-08-03T09:31:46.710Z,35.49
2022-08-03T09:34:17.323Z,36.06
2022-08-03T09:36:47.153Z,36.64
2022-08-03T09:39:17.047Z,36.75
2022-08-03T09:41:48.435Z,36.74
2022-08-03T09:44:24.868Z,36.99
2022-08-03T09:46:56.367Z,37.22
2022-08-03T09:49:25.400Z,37.18
2022-08-03T09:52:33.934Z,37.26
2022-08-03T09:54:44.237Z,37.22
2022-08-03T09:57:22.699Z,36.84
2022-08-03T10:00:04.575Z,36.66
2022-08-03T10:02:42.414Z,36.91
2022-08-03T10:05:17.632Z,37.22
2022-08-03T10:07:50.401Z,37.09
2022-08-03T10:10:31.054Z,36.94
2022-08-03T10:13:00.786Z,37.28
2022-08-03T10:16:21.817Z,36.59
2022-08-03T10:18:18.446Z,36.97
2022-08-03T10:20:52.237Z,36.15
2022-08-03T10:23:22.770Z,36.06
2022-08-03T10:25:57.926Z,35.51
2022-08-03T10:28:33.247Z,35.23
2022-08-03T10:31:07.596Z,35.11
2022-08-03T10:33:50.183Z,35.14
2022-08-03T10:36:24.721Z,35.21
2022-08-03T10:38:55.160Z,34.94
2022-08-03T10:41:31.449Z,35.00
2022-08-03T10:44:06.745Z,35.38
2022-08-03T10:46:44.453Z,35.89
2022-08-03T10:49:14.803Z,35.77
2022-08-03T10:51:44.940Z,35.93
2022-08-03T10:55:03.316Z,35.47
2022-08-03T10:58:12.384Z,35.74
2022-08-03T11:00:53.439Z,35.84
2022-08-03T11:03:22.759Z,35.77
2022-08-03T11:05:52.211Z,35.90
2022-08-03T11:08:30.097Z,36.59
2022-08-03T11:11:23.938Z,37.16
2022-08-03T11:13:59.489Z,37.53
2022-08-03T11:16:28.284Z,38.12
2022-08-03T11:19:00.967Z,38.12
2022-08-03T11:21:54.531Z,38.17
2022-08-03T11:25:00.268Z,37.99
2022-08-03T11:27:31.355Z,37.89
2022-08-03T11:30:05.463Z,37.42
2022-08-03T11:32:59.855Z,37.57
2022-08-03T11:35:36.744Z,38.05
2022-08-03T11:38:12.610Z,38.85
2022-08-03T11:40:45.067Z,39.34
2022-08-03T11:43:46.938Z,39.41
2022-08-03T11:46:28.403Z,39.71
2022-08-03T11:49:10.304Z,40.14
2022-08-03T11:51:40.893Z,40.18
2022-08-03T11:54:08.977Z,40.15
2022-08-03T11:56:49.233Z,40.11
2022-08-03T11:59:21.708Z,40.15
2022-08-03T12:02:05.704Z,40.47
2022-08-03T12:04:50.346Z,41.13
2022-08-03T12:07:25.897Z,41.00
2022-08-03T12:10:12.812Z,40.23
2022-08-03T12:12:46.425Z,40.38
2022-08-03T12:15:15.202Z,40.98
2022-08-03T12:17:43.418Z,41.75
2022-08-03T12:20:34.828Z,41.60
2022-08-03T12:23:07.497Z,40.99
2022-08-03T12:25:39.879Z,40.70
2022-08-03T12:28:37.145Z,41.09
2022-08-03T12:31:07.490Z,41.46
2022-08-03T12:33:59.006Z,41.47
2022-08-03T12:36:28.621Z,41.96
2022-08-03T12:39:03.095Z,41.69
2022-08-03T12:41:34.865Z,41.63
2022-08-03T12:44:05.977Z,42.30
2022-08-03T12:46:36.933Z,42.50
2022-08-03T12:49:08.466Z,42.27
2022-08-03T12:51:57.022Z,41.87
2022-08-03T12:54:29.389Z,41.57
2022-08-03T12:57:00.671Z,42.08
2022-08-03T12:59:35.076Z,42.26
2022-08-03T13:02:16.769Z,42.77
2022-08-03T13:04:47.783Z,41.76
2022-08-03T13:07:19.678Z,41.10
2022-08-03T13:09:52.906Z,41.27
2022-08-03T13:12:22.886Z,41.44
2022-08-03T13:14:53.247Z,41.86
2022-08-03T13:17:28.203Z,42.21
2022-08-03T13:19:56.475Z,42.37
2022-08-03T13:22:28.985Z,42.62
2022-08-03T13:25:02.948Z,42.68
2022-08-03T13:28:04.552Z,43.42
2022-08-03T13:30:29.717Z,43.35
2022-08-03T13:33:00.122Z,43.91
2022-08-03T13:35:28.729Z,43.89
2022-08-03T13:37:56.770Z,44.22
2022-08-03T13:40:30.053Z,43.95
2022-08-03T13:42:58.791Z,44.05
2022-08-03T13:45:27.580Z,43.42
2022-08-03T13:47:55.707Z,43.04
2022-08-03T13:50:23.568Z,42.42
2022-08-03T13:52:51.864Z,42.46
2022-08-03T13:55:19.693Z,42.36
2022-08-03T13:58:02.670Z,42.45
2022-08-03T14:00:35.301Z,41.71
2022-08-03T14:03:12.660Z,42.67
2022-08-03T14:05:43.895Z,42.81
2022-08-03T14:08:14.522Z,42.31
2022-08-03T14:10:45.894Z,42.62
2022-08-03T14:13:17.439Z,42.65
2022-08-03T14:15:51.187Z,43.04
2022-08-03T14:18:28.622Z,42.70
2022-08-03T14:21:06.775Z,42.76
2022-08-03T14:23:37.802Z,42.67
2022-08-03T14:26:09.493Z,41.82
2022-08-03T14:28:38.676Z,41.82
2022-08-03T14:31:08.484Z,41.53
2022-08-03T14:33:55.673Z,41.50
2022-08-03T14:36:23.465Z,41.94
2022-08-03T14:38:51.326Z,41.89
2022-08-03T14:41:20.344Z,41.57
2022-08-03T14:44:01.302Z,41.61
2022-08-03T14:46:30.874Z,40.94
2022-08-03T14:50:28.474Z,40.38
2022-08-03T14:51:53.793Z,40.61
2022-08-03T14:54:22.354Z,40.59
2022-08-03T14:56:50.288Z,41.01
2022-08-03T14:59:19.450Z,41.34
2022-08-03T15:02:06.042Z,41.33
2022-08-03T15:04:35.099Z,41.32
2022-08-03T15:07:03.195Z,40.93
2022-08-03T15:09:31.366Z,40.67
2022-08-03T15:12:00.542Z,40.34
2022-08-03T15:14:33.127Z,40.83
2022-08-03T15:17:02.897Z,40.44
2022-08-03T15:20:02.165Z,39.60
2022-08-03T15:22:25.315Z,39.28
2022-08-03T15:25:04.200Z,39.83
2022-08-03T15:28:03.509Z,39.81
2022-08-03T15:30:36.906Z,39.49
2022-08-03T15:33:07.942Z,38.99
2022-08-03T15:35:36.174Z,39.16
2022-08-03T15:38:09.026Z,38.20
2022-08-03T15:40:38.479Z,38.63
2022-08-03T15:43:06.769Z,38.60
2022-08-03T15:45:37.256Z,38.83
2022-08-03T15:48:05.721Z,38.99
2022-08-03T15:50:33.657Z,39.20
2022-08-03T15:53:01.560Z,38.91
2022-08-03T15:55:29.477Z,38.67
2022-08-03T15:59:10.686Z,38.10
2022-08-03T16:00:47.222Z,37.82
2022-08-03T16:03:15.385Z,37.86
2022-08-03T16:05:43.228Z,38.36
2022-08-03T16:08:13.818Z,38.22
2022-08-03T16:10:42.476Z,37.83
2022-08-03T16:13:10.572Z,37.77
2022-08-03T16:15:39.085Z,37.76
2022-08-03T16:18:09.748Z,37.22
2022-08-03T16:20:37.507Z,37.65
2022-08-03T16:23:10.436Z,37.98
2022-08-03T16:25:40.260Z,38.21
2022-08-03T16:28:13.729Z,37.74
2022-08-03T16:30:44.794Z,37.70
2022-08-03T16:33:17.456Z,37.75
2022-08-03T16:35:48.996Z,37.89
2022-08-03T16:38:19.395Z,38.26
2022-08-03T16:40:51.447Z,38.53
2022-08-03T16:43:22.341Z,38.80
2022-08-03T16:45:51.146Z,38.13
2022-08-03T16:48:20.440Z,38.26
2022-08-03T16:50:48.984Z,38.10
2022-08-03T16:53:33.208Z,38.20
2022-08-03T16:56:09.859Z,37.82
2022-08-03T16:58:42.054Z,37.83
2022-08-03T17:01:22.265Z,37.57
2022-08-03T17:04:02.477Z,37.43
2022-08-03T17:06:36.971Z,37.11
2022-08-03T17:09:09.840Z,36.84
2022-08-03T17:11:46.665Z,36.69
2022-08-03T17:14:21.842Z,36.60
2022-08-03T17:16:53.927Z,36.37
2022-08-03T17:19:26.320Z,36.39
2022-08-03T17:22:03.929Z,36.39
2022-08-03T17:24:34.854Z,36.30
2022-08-03T17:27:08.810Z,36.29
2022-08-03T17:29:45.265Z,36.25
2022-08-03T17:32:21.127Z,36.33
2022-08-03T17:34:51.168Z,36.03
2022-08-03T17:37:50.478Z,35.78
2022-08-03T17:40:16.001Z,35.61
2022-08-03T17:42:50.481Z,35.30
2022-08-03T17:45:20.029Z,34.91
2022-08-03T17:47:57.624Z,34.62
2022-08-03T17:50:44.121Z,34.54
2022-08-03T17:53:23.938Z,34.31
2022-08-03T17:56:38.749Z,33.86
2022-08-03T17:59:15.481Z,33.58
2022-08-03T18:02:29.563Z,33.18
2022-08-03T18:05:16.450Z,33.24
2022-08-03T18:07:59.223Z,32.87
2022-08-03T18:10:35.445Z,32.91
2022-08-03T18:13:10.588Z,32.90
2022-08-03T18:15:46.739Z,32.74
2022-08-03T18:18:32.447Z,32.76
2022-08-03T18:21:04.570Z,32.65
2022-08-03T18:23:38.361Z,32.49
2022-08-03T18:26:12.026Z,32.19
2022-08-03T18:28:41.142Z,32.19
2022-08-03T18:32:04.010Z,32.09
2022-08-03T18:34:19.272Z,32.17
2022-08-03T18:36:56.101Z,32.03
2022-08-03T18:39:28.469Z,32.03
2022-08-03T18:41:58.881Z,31.89
2022-08-03T18:44:53.390Z,31.70
2022-08-03T18:47:51.821Z,31.47
2022-08-03T18:50:30.794Z,31.31
2022-08-03T18:53:16.666Z,31.30
2022-08-03T18:56:01.940Z,31.20
2022-08-03T18:58:52.272Z,31.22
2022-08-03T19:01:58.417Z,31.12
2022-08-03T19:04:34.081Z,31.12
2022-08-03T19:07:14.792Z,31.14
2022-08-03T19:09:52.040Z,31.01
2022-08-03T19:12:31.006Z,30.94
2022-08-03T19:15:10.562Z,30.84
2022-08-03T19:17:50.118Z,30.80
2022-08-03T19:20:25.176Z,30.72
2022-08-03T19:22:58.225Z,30.63
2022-08-03T19:28:29.622Z,30.39
2022-08-03T19:31:02.627Z,30.28
2022-08-03T19:33:46.446Z,30.15
2022-08-03T19:36:30.061Z,30.10
2022-08-03T19:38:59.323Z,30.03
2022-08-03T19:41:41.849Z,29.98
2022-08-03T19:44:22.992Z,29.96
2022-08-03T19:47:01.276Z,29.90
2022-08-03T19:50:02.822Z,29.81
2022-08-03T19:52:28.325Z,29.68
2022-08-03T19:55:07.255Z,29.57
2022-08-03T19:57:40.711Z,29.47
2022-08-03T20:00:14.115Z,29.36
2022-08-03T20:02:45.063Z,29.21
2022-08-03T20:05:15.545Z,29.06
2022-08-03T20:07:52.061Z,28.93
2022-08-03T20:10:21.851Z,28.89
2022-08-03T20:12:51.151Z,28.80
2022-08-03T20:15:31.526Z,28.75
2022-08-03T20:18:00.374Z,28.66
2022-08-03T20:20:32.757Z,28.60
2022-08-03T20:23:09.823Z,28.57
2022-08-03T20:25:56.986Z,28.52
2022-08-03T20:28:49.769Z,28.50
2022-08-03T20:31:32.526Z,28.38
2022-08-03T20:34:07.249Z,28.40
2022-08-03T20:36:38.195Z,28.48
2022-08-03T20:39:07.845Z,28.47
2022-08-03T20:41:41.567Z,28.41
2022-08-03T20:44:09.617Z,28.42
2022-08-03T20:46:53.189Z,28.40
2022-08-03T20:49:28.172Z,28.39
2022-08-03T20:51:56.087Z,28.32
2022-08-03T20:57:17.749Z,28.24
2022-08-03T20:59:51.409Z,28.18
2022-08-03T21:05:12.541Z,28.10
2022-08-03T21:08:05.217Z,28.05
2022-08-03T21:10:39.743Z,27.89
2022-08-03T21:13:13.662Z,28.34
2022-08-03T21:16:11.532Z,27.81
2022-08-03T21:18:45.652Z,27.72
2022-08-03T21:21:17.615Z,27.65
2022-08-03T21:23:52.824Z,27.54
2022-08-03T21:26:23.379Z,27.52
2022-08-03T21:28:54.948Z,27.47
2022-08-03T21:31:26.264Z,27.41
2022-08-03T21:34:00.304Z,27.38
2022-08-03T21:36:32.922Z,27.35
2022-08-03T21:39:06.564Z,27.34
2022-08-03T21:41:37.385Z,27.26
2022-08-03T21:44:08.155Z,27.23
2022-08-03T21:46:40.886Z,27.21
2022-08-03T21:50:04.835Z,27.17
2022-08-03T21:52:05.349Z,27.18
2022-08-03T21:54:36.939Z,27.13
2022-08-03T21:57:13.064Z,27.09
2022-08-03T21:59:55.314Z,27.05
2022-08-03T22:02:32.063Z,26.99
2022-08-03T22:05:04.844Z,26.95
2022-08-03T22:07:38.330Z,26.90
2022-08-03T22:10:07.766Z,26.86
2022-08-03T22:12:37.276Z,26.84
2022-08-03T22:15:11.845Z,26.82
2022-08-03T22:17:55.709Z,26.79
2022-08-03T22:20:26.453Z,26.78
2022-08-03T22:23:02.453Z,26.79
2022-08-03T22:25:33.541Z,26.79
2022-08-03T22:28:07.629Z,26.73
2022-08-03T22:30:36.324Z,26.69
2022-08-03T22:33:11.590Z,26.68
2022-08-03T22:35:47.458Z,26.63
2022-08-03T22:38:18.637Z,26.60
2022-08-03T22:40:52.748Z,26.55
2022-08-03T22:43:24.094Z,26.52
2022-08-03T22:46:10.337Z,26.51
2022-08-03T22:48:41.799Z,26.40
2022-08-03T22:51:11.344Z,26.32
2022-08-03T22:53:40.129Z,26.27
2022-08-03T22:56:08.808Z,26.23
2022-08-03T22:58:36.698Z,26.16
2022-08-03T23:01:11.449Z,26.03
2022-08-03T23:03:59.979Z,26.02
2022-08-03T23:06:36.899Z,25.86
2022-08-03T23:09:09.174Z,25.82
2022-08-03T23:11:43.036Z,25.81
2022-08-03T23:14:20.966Z,25.82
2022-08-03T23:16:54.180Z,25.78
2022-08-03T23:19:27.564Z,25.76
2022-08-03T23:22:04.086Z,25.74
2022-08-03T23:24:35.890Z,25.72
2022-08-03T23:27:07.997Z,25.70
2022-08-03T23:29:43.005Z,25.59
2022-08-03T23:32:14.206Z,25.62
2022-08-03T23:35:04.095Z,25.66
2022-08-03T23:37:34.624Z,25.67
2022-08-03T23:40:26.371Z,25.63
2022-08-03T23:42:55.929Z,25.57
2022-08-03T23:45:27.783Z,25.56
2022-08-03T23:47:55.772Z,25.60
2022-08-03T23:50:24.616Z,25.49
2022-08-03T23:53:18.137Z,25.42
2022-08-03T23:56:10.281Z,25.40
2022-08-03T23:59:00.017Z,25.38
